createdAt,value
2023-04-16T00:01:58.307Z,84.40
2023-04-16T00:04:25.241Z,84.17
2023-04-16T00:06:52.045Z,83.65
2023-04-16T00:09:18.754Z,83.64
2023-04-16T00:11:45.477Z,83.79
2023-04-16T00:14:12.210Z,83.97
2023-04-16T00:16:38.945Z,84.67
2023-04-16T00:19:05.800Z,83.83
2023-04-16T00:21:32.608Z,83.69
2023-04-16T00:23:59.368Z,83.97
2023-04-16T00:26:26.225Z,83.83
2023-04-16T00:28:53.528Z,83.46
2023-04-16T00:31:27.734Z,83.65
2023-04-16T00:33:56.207Z,84.08
2023-04-16T00:36:27.560Z,84.15
2023-04-16T00:38:54.962Z,83.63
2023-04-16T00:41:23.227Z,83.77
2023-04-16T00:43:50.317Z,83.50
2023-04-16T00:46:17.270Z,83.89
2023-04-16T00:48:44.968Z,84.05
2023-04-16T00:51:12.132Z,83.93
2023-04-16T00:53:38.997Z,84.43
2023-04-16T00:56:07.509Z,84.40
2023-04-16T00:58:35.422Z,84.53
2023-04-16T01:01:02.579Z,84.47
2023-04-16T01:03:38.711Z,84.22
2023-04-16T01:06:07.686Z,83.96
2023-04-16T01:08:34.488Z,83.81
2023-04-16T01:11:01.441Z,83.70
2023-04-16T01:13:28.260Z,83.69
2023-04-16T01:15:55.466Z,84.06
2023-04-16T01:18:23.610Z,84.07
2023-04-16T01:20:51.449Z,84.47
2023-04-16T01:23:18.869Z,84.07
2023-04-16T01:25:46.339Z,83.56
2023-04-16T01:28:13.086Z,83.88
2023-04-16T01:30:39.788Z,83.61
2023-04-16T01:33:18.651Z,83.98
2023-04-16T01:35:45.685Z,83.72
2023-04-16T01:38:14.572Z,83.71
2023-04-16T01:40:41.314Z,83.81
2023-04-16T01:43:08.061Z,83.66
2023-04-16T01:45:35.483Z,83.82
2023-04-16T01:48:02.643Z,83.86
2023-04-16T01:50:30.047Z,83.73
2023-04-16T01:52:56.807Z,83.72
2023-04-16T01:55:23.582Z,83.83
2023-04-16T01:57:51.008Z,83.52
2023-04-16T02:00:18.258Z,83.91
2023-04-16T02:02:49.461Z,84.14
2023-04-16T02:05:23.996Z,84.16
2023-04-16T02:07:50.710Z,83.93
2023-04-16T02:10:17.504Z,84.07
2023-04-16T02:12:44.712Z,84.14
2023-04-16T02:15:12.893Z,83.70
2023-04-16T02:17:39.638Z,83.80
2023-04-16T02:20:11.112Z,84.43
2023-04-16T02:22:48.182Z,84.19
2023-04-16T02:25:18.447Z,84.22
2023-04-16T02:27:46.161Z,84.15
2023-04-16T02:30:24.518Z,84.38
2023-04-16T02:32:52.441Z,83.91
2023-04-16T02:35:19.913Z,84.31
2023-04-16T02:37:46.641Z,84.22
2023-04-16T02:40:13.335Z,84.39
2023-04-16T02:42:40.023Z,84.32
2023-04-16T02:45:08.029Z,84.15
2023-04-16T02:47:34.726Z,83.95
2023-04-16T02:50:01.452Z,83.98
2023-04-16T02:52:28.214Z,84.48
2023-04-16T02:54:55.550Z,84.40
2023-04-16T02:57:22.268Z,83.89
2023-04-16T02:59:49.035Z,83.93
2023-04-16T03:02:16.457Z,83.67
2023-04-16T03:04:43.428Z,83.94
2023-04-16T03:07:11.304Z,84.30
2023-04-16T03:09:38.264Z,84.32
2023-04-16T03:12:05.184Z,84.56
2023-04-16T03:14:32.032Z,84.26
2023-04-16T03:16:58.979Z,84.13
2023-04-16T03:19:26.131Z,84.41
2023-04-16T03:21:52.913Z,84.60
2023-04-16T03:24:19.601Z,84.36
2023-04-16T03:26:48.952Z,84.72
2023-04-16T03:29:15.889Z,84.78
2023-04-16T03:31:42.787Z,84.96
2023-04-16T03:34:09.816Z,85.27
2023-04-16T03:36:36.575Z,85.24
2023-04-16T03:39:03.598Z,84.88
2023-04-16T03:41:30.577Z,84.65
2023-04-16T03:43:58.029Z,84.79
2023-04-16T03:46:24.794Z,84.67
2023-04-16T03:48:52.357Z,84.49
2023-04-16T03:51:19.066Z,84.62
2023-04-16T03:53:46.226Z,84.44
2023-04-16T03:56:14.238Z,84.75
2023-04-16T03:58:41.214Z,84.72
2023-04-16T04:01:08.429Z,84.75
2023-04-16T04:03:36.761Z,84.39
2023-04-16T04:06:10.326Z,83.97
2023-04-16T04:08:37.109Z,84.60
2023-04-16T04:11:04.968Z,84.85
2023-04-16T04:13:33.398Z,84.53
2023-04-16T04:16:00.156Z,84.26
2023-04-16T04:18:27.914Z,84.87
2023-04-16T04:20:54.747Z,84.99
2023-04-16T04:23:25.516Z,85.00
2023-04-16T04:25:52.284Z,84.63
2023-04-16T04:28:19.061Z,84.72
2023-04-16T04:30:45.927Z,85.17
2023-04-16T04:33:13.182Z,84.93
2023-04-16T04:35:39.939Z,84.92
2023-04-16T04:38:08.244Z,84.79
2023-04-16T04:40:35.182Z,85.13
2023-04-16T04:43:03.150Z,84.73
2023-04-16T04:45:31.770Z,84.64
2023-04-16T04:47:59.096Z,84.73
2023-04-16T04:50:26.081Z,84.21
2023-04-16T04:52:52.768Z,84.55
2023-04-16T04:55:19.554Z,84.76
2023-04-16T04:57:46.486Z,84.72
2023-04-16T05:00:13.624Z,84.56
2023-04-16T05:03:02.074Z,84.39
2023-04-16T05:05:28.866Z,84.13
2023-04-16T05:07:55.805Z,84.10
2023-04-16T05:10:22.580Z,84.42
2023-04-16T05:12:49.352Z,83.88
2023-04-16T05:15:16.797Z,84.22
2023-04-16T05:17:43.519Z,84.10
2023-04-16T05:20:10.648Z,84.22
2023-04-16T05:22:37.342Z,84.44
2023-04-16T05:25:04.397Z,84.75
2023-04-16T05:27:31.133Z,84.73
2023-04-16T05:29:58.017Z,84.88
2023-04-16T05:32:28.030Z,84.97
2023-04-16T05:34:54.888Z,84.62
2023-04-16T05:37:21.628Z,84.63
2023-04-16T05:39:48.463Z,84.22
2023-04-16T05:42:15.280Z,84.48
2023-04-16T05:44:42.179Z,84.50
2023-04-16T05:47:09.614Z,84.71
2023-04-16T05:49:39.504Z,84.52
2023-04-16T05:52:06.380Z,84.42
2023-04-16T05:54:33.133Z,84.17
2023-04-16T05:57:01.244Z,84.16
2023-04-16T05:59:29.410Z,84.26
2023-04-16T06:01:56.369Z,84.21
2023-04-16T06:04:23.244Z,84.53
2023-04-16T06:06:50.150Z,84.44
2023-04-16T06:09:16.973Z,84.71
2023-04-16T06:11:43.780Z,84.70
2023-04-16T06:14:11.011Z,84.05
2023-04-16T06:16:38.889Z,84.31
2023-04-16T06:19:05.745Z,84.81
2023-04-16T06:21:32.671Z,84.86
2023-04-16T06:23:59.387Z,84.51
2023-04-16T06:26:26.861Z,84.41
2023-04-16T06:28:54.174Z,84.42
2023-04-16T06:31:21.257Z,84.42
2023-04-16T06:33:48.004Z,84.69
2023-04-16T06:36:14.736Z,85.01
2023-04-16T06:38:41.410Z,85.08
2023-04-16T06:41:08.191Z,84.78
2023-04-16T06:43:35.067Z,85.15
2023-04-16T06:46:01.744Z,85.09
2023-04-16T06:48:28.547Z,84.86
2023-04-16T06:50:56.147Z,84.83
2023-04-16T06:53:23.754Z,84.78
2023-04-16T06:55:50.721Z,85.33
2023-04-16T06:58:18.056Z,85.12
2023-04-16T07:00:45.512Z,84.95
2023-04-16T07:03:12.556Z,85.27
2023-04-16T07:05:39.514Z,84.73
2023-04-16T07:08:06.403Z,84.37
2023-04-16T07:10:33.524Z,84.30
2023-04-16T07:13:01.705Z,84.56
2023-04-16T07:15:28.834Z,84.97
2023-04-16T07:17:55.868Z,85.02
2023-04-16T07:20:22.609Z,84.72
2023-04-16T07:22:49.564Z,84.54
2023-04-16T07:25:16.432Z,84.29
2023-04-16T07:27:43.223Z,84.39
2023-04-16T07:30:10.211Z,83.96
2023-04-16T07:32:37.053Z,84.14
2023-04-16T07:35:04.187Z,84.02
2023-04-16T07:37:31.181Z,84.14
2023-04-16T07:39:57.952Z,84.34
2023-04-16T07:42:24.736Z,84.58
2023-04-16T07:44:51.566Z,84.36
2023-04-16T07:47:18.285Z,84.16
2023-04-16T07:49:45.021Z,84.13
2023-04-16T07:52:12.114Z,84.71
2023-04-16T07:54:38.889Z,84.28
2023-04-16T07:57:05.607Z,83.97
2023-04-16T07:59:32.374Z,84.09
2023-04-16T08:01:59.317Z,84.44
2023-04-16T08:04:26.640Z,84.01
2023-04-16T08:06:54.194Z,83.94
2023-04-16T08:09:22.427Z,83.94
2023-04-16T08:11:50.102Z,83.95
2023-04-16T08:14:17.433Z,83.85
2023-04-16T08:16:44.253Z,84.10
2023-04-16T08:19:11.236Z,84.48
2023-04-16T08:21:38.141Z,84.18
2023-04-16T08:24:04.894Z,84.15
2023-04-16T08:26:31.612Z,83.78
2023-04-16T08:28:58.330Z,84.27
2023-04-16T08:31:25.149Z,84.40
2023-04-16T08:33:52.025Z,84.46
2023-04-16T08:36:19.224Z,84.29
2023-04-16T08:38:45.970Z,84.59
2023-04-16T08:41:13.823Z,84.74
2023-04-16T08:43:45.338Z,84.84
2023-04-16T08:46:12.843Z,84.43
2023-04-16T08:48:42.358Z,84.52
2023-04-16T08:51:11.208Z,84.93
2023-04-16T08:53:49.812Z,85.14
2023-04-16T08:56:20.900Z,84.50
2023-04-16T08:58:48.185Z,84.66
2023-04-16T09:01:15.038Z,84.95
2023-04-16T09:03:42.168Z,84.77
2023-04-16T09:06:10.111Z,84.92
2023-04-16T09:08:38.323Z,84.57
2023-04-16T09:11:05.095Z,84.53
2023-04-16T09:13:32.359Z,84.56
2023-04-16T09:16:00.155Z,84.34
2023-04-16T09:18:28.277Z,84.42
2023-04-16T09:20:56.511Z,84.66
2023-04-16T09:23:23.442Z,84.41
2023-04-16T09:25:50.182Z,84.13
2023-04-16T09:28:42.605Z,84.67
2023-04-16T09:31:16.629Z,84.96
2023-04-16T09:33:44.674Z,84.68
2023-04-16T09:36:11.528Z,84.48
2023-04-16T09:38:49.081Z,84.31
2023-04-16T09:41:16.828Z,84.49
2023-04-16T09:43:55.287Z,84.20
2023-04-16T09:46:22.133Z,84.38
2023-04-16T09:48:48.900Z,84.42
2023-04-16T09:51:15.688Z,84.50
2023-04-16T09:53:42.381Z,84.29
2023-04-16T09:56:09.225Z,83.89
2023-04-16T09:58:36.708Z,83.95
2023-04-16T10:01:11.353Z,83.67
2023-04-16T10:03:41.704Z,84.00
2023-04-16T10:06:19.772Z,84.10
2023-04-16T10:08:50.871Z,83.87
2023-04-16T10:11:19.046Z,83.82
2023-04-16T10:13:46.154Z,84.15
2023-04-16T10:16:13.431Z,84.67
2023-04-16T10:18:41.603Z,84.48
2023-04-16T10:21:08.933Z,84.79
2023-04-16T10:23:35.904Z,84.47
2023-04-16T10:26:03.193Z,84.42
2023-04-16T10:28:31.187Z,84.15
2023-04-16T10:30:58.842Z,84.35
2023-04-16T10:33:27.735Z,84.79
2023-04-16T10:36:10.999Z,84.57
2023-04-16T10:38:50.922Z,84.56
2023-04-16T10:41:17.610Z,84.71
2023-04-16T10:43:47.294Z,84.61
2023-04-16T10:46:24.208Z,84.62
2023-04-16T10:48:53.998Z,84.65
2023-04-16T10:51:34.682Z,84.82
2023-04-16T10:54:20.286Z,84.94
2023-04-16T10:56:47.764Z,84.42
2023-04-16T10:59:18.676Z,84.94
2023-04-16T11:01:47.571Z,84.85
2023-04-16T11:04:20.342Z,84.56
2023-04-16T11:07:11.917Z,84.82
2023-04-16T11:09:53.602Z,84.79
2023-04-16T11:12:27.894Z,84.63
2023-04-16T11:15:14.956Z,85.21
2023-04-16T11:17:44.166Z,84.72
2023-04-16T11:20:28.025Z,84.18
2023-04-16T11:22:56.604Z,84.36
2023-04-16T11:25:25.070Z,84.43
2023-04-16T11:27:52.320Z,84.54
2023-04-16T11:30:29.551Z,84.63
2023-04-16T11:32:56.322Z,84.63
2023-04-16T11:35:23.099Z,84.37
2023-04-16T11:37:49.877Z,84.63
2023-04-16T11:40:16.635Z,84.62
2023-04-16T11:42:44.557Z,84.34
2023-04-16T11:45:12.216Z,84.38
2023-04-16T11:47:52.392Z,84.38
2023-04-16T11:50:28.627Z,83.94
2023-04-16T11:53:04.714Z,84.25
2023-04-16T11:55:31.444Z,84.22
2023-04-16T11:58:11.661Z,84.22
2023-04-16T12:00:38.604Z,84.36
2023-04-16T12:03:05.565Z,84.14
2023-04-16T12:05:38.900Z,84.58
2023-04-16T12:08:07.991Z,84.28
2023-04-16T12:10:37.494Z,84.43
2023-04-16T12:13:15.437Z,84.37
2023-04-16T12:15:51.939Z,84.30
2023-04-16T12:18:19.005Z,84.28
2023-04-16T12:20:46.407Z,84.48
2023-04-16T12:23:26.883Z,84.88
2023-04-16T12:25:54.241Z,84.87
2023-04-16T12:28:35.021Z,84.53
2023-04-16T12:31:03.070Z,84.19
2023-04-16T12:33:30.022Z,84.93
2023-04-16T12:35:56.970Z,84.78
2023-04-16T12:38:26.947Z,84.76
2023-04-16T12:40:57.242Z,84.87
2023-04-16T12:43:24.740Z,85.45
2023-04-16T12:45:51.567Z,85.26
2023-04-16T12:48:18.313Z,85.35
2023-04-16T12:50:45.137Z,85.46
2023-04-16T12:53:12.148Z,84.95
2023-04-16T12:55:39.159Z,85.09
2023-04-16T12:58:05.874Z,85.33
2023-04-16T13:00:33.017Z,85.33
2023-04-16T13:03:00.262Z,85.23
2023-04-16T13:05:27.346Z,84.83
2023-04-16T13:07:54.316Z,85.12
2023-04-16T13:10:22.246Z,85.18
2023-04-16T13:12:49.201Z,84.52
2023-04-16T13:15:16.106Z,84.21
2023-04-16T13:17:42.879Z,84.45
2023-04-16T13:20:10.347Z,84.81
2023-04-16T13:22:37.183Z,84.75
2023-04-16T13:25:04.015Z,84.53
2023-04-16T13:27:32.263Z,84.45
2023-04-16T13:29:59.052Z,84.85
2023-04-16T13:32:25.923Z,84.82
2023-04-16T13:34:52.930Z,84.53
2023-04-16T13:37:19.635Z,84.30
2023-04-16T13:39:46.635Z,84.06
2023-04-16T13:42:13.350Z,83.89
2023-04-16T13:44:40.102Z,84.00
2023-04-16T13:47:06.952Z,83.85
2023-04-16T13:49:36.156Z,84.28
2023-04-16T13:52:03.384Z,84.03
2023-04-16T13:54:30.136Z,84.48
2023-04-16T13:56:57.024Z,84.00
2023-04-16T13:59:23.810Z,84.06
2023-04-16T14:01:51.204Z,84.05
2023-04-16T14:04:18.078Z,84.12
2023-04-16T14:06:45.088Z,84.28
2023-04-16T14:09:12.020Z,83.92
2023-04-16T14:11:38.821Z,84.40
2023-04-16T14:14:05.663Z,84.13
2023-04-16T14:16:32.451Z,83.98
2023-04-16T14:18:59.184Z,84.27
2023-04-16T14:21:27.291Z,84.05
2023-04-16T14:23:54.089Z,84.30
2023-04-16T14:26:21.445Z,84.00
2023-04-16T14:28:48.518Z,83.93
2023-04-16T14:31:15.301Z,83.83
2023-04-16T14:33:42.049Z,84.16
2023-04-16T14:36:08.939Z,83.84
2023-04-16T14:38:38.572Z,83.74
2023-04-16T14:41:05.333Z,83.74
2023-04-16T14:43:32.109Z,83.36
2023-04-16T14:45:59.164Z,83.59
2023-04-16T14:48:26.298Z,83.91
2023-04-16T14:50:56.447Z,83.79
2023-04-16T14:53:23.837Z,83.68
2023-04-16T14:55:52.007Z,84.49
2023-04-16T14:58:18.985Z,84.14
2023-04-16T15:00:45.932Z,83.86
2023-04-16T15:03:13.185Z,84.15
2023-04-16T15:05:40.075Z,84.28
2023-04-16T15:08:07.420Z,84.16
2023-04-16T15:10:35.190Z,84.08
2023-04-16T15:13:01.897Z,84.06
2023-04-16T15:15:28.861Z,84.14
2023-04-16T15:17:57.181Z,84.12
2023-04-16T15:20:23.889Z,84.34
2023-04-16T15:22:50.662Z,84.44
2023-04-16T15:25:17.568Z,84.83
2023-04-16T15:27:44.296Z,84.59
2023-04-16T15:30:12.809Z,84.60
2023-04-16T15:32:39.535Z,84.54
2023-04-16T15:35:06.907Z,84.55
2023-04-16T15:37:34.229Z,85.07
2023-04-16T15:40:01.371Z,84.93
2023-04-16T15:42:28.152Z,84.87
2023-04-16T15:44:54.853Z,84.86
2023-04-16T15:47:21.668Z,85.39
2023-04-16T15:49:48.368Z,85.27
2023-04-16T15:52:15.928Z,85.33
2023-04-16T15:54:43.167Z,85.15
2023-04-16T15:57:09.859Z,84.69
2023-04-16T15:59:36.581Z,85.01
2023-04-16T16:02:03.343Z,84.66
2023-04-16T16:04:30.341Z,85.21
2023-04-16T16:06:57.270Z,85.31
2023-04-16T16:09:26.906Z,84.89
2023-04-16T16:11:54.685Z,84.83
2023-04-16T16:14:22.169Z,84.38
2023-04-16T16:16:48.850Z,84.52
2023-04-16T16:19:15.549Z,84.59
2023-04-16T16:21:42.330Z,84.56
2023-04-16T16:24:09.605Z,84.55
2023-04-16T16:26:36.787Z,84.40
2023-04-16T16:29:03.850Z,84.52
2023-04-16T16:31:30.681Z,84.37
2023-04-16T16:33:57.516Z,84.51
2023-04-16T16:36:24.346Z,84.67
2023-04-16T16:38:53.812Z,84.89
2023-04-16T16:41:20.734Z,84.39
2023-04-16T16:43:47.456Z,84.40
2023-04-16T16:46:14.197Z,84.83
2023-04-16T16:48:41.077Z,85.12
2023-04-16T16:51:10.788Z,84.50
2023-04-16T16:53:37.689Z,84.41
2023-04-16T16:56:04.572Z,84.19
2023-04-16T16:58:32.168Z,84.10
2023-04-16T17:00:59.424Z,84.17
2023-04-16T17:03:26.335Z,84.41
2023-04-16T17:05:53.662Z,84.40
2023-04-16T17:08:20.558Z,84.64
2023-04-16T17:10:47.278Z,85.35
2023-04-16T17:13:15.280Z,84.71
2023-04-16T17:15:42.172Z,84.96
2023-04-16T17:18:08.890Z,84.75
2023-04-16T17:20:35.683Z,84.67
2023-04-16T17:23:02.562Z,84.61
2023-04-16T17:25:29.656Z,84.46
2023-04-16T17:27:56.576Z,84.50
2023-04-16T17:30:27.938Z,84.74
2023-04-16T17:32:54.774Z,84.60
2023-04-16T17:35:21.576Z,84.52
2023-04-16T17:37:48.242Z,84.53
2023-04-16T17:40:18.226Z,84.38
2023-04-16T17:42:45.628Z,84.62
2023-04-16T17:45:12.650Z,84.44
2023-04-16T17:47:39.442Z,84.69
2023-04-16T17:50:07.425Z,84.51
2023-04-16T17:52:34.275Z,84.41
2023-04-16T17:55:01.899Z,84.38
2023-04-16T17:57:28.680Z,84.59
2023-04-16T17:59:55.487Z,84.55
2023-04-16T18:02:22.722Z,84.64
2023-04-16T18:04:49.773Z,84.52
2023-04-16T18:07:16.508Z,84.62
2023-04-16T18:09:43.292Z,85.10
2023-04-16T18:12:10.061Z,84.77
2023-04-16T18:14:37.878Z,84.39
2023-04-16T18:17:06.490Z,84.69
2023-04-16T18:19:35.601Z,84.61
2023-04-16T18:22:02.430Z,84.63
2023-04-16T18:24:29.526Z,84.90
2023-04-16T18:26:56.886Z,84.74
2023-04-16T18:29:25.298Z,84.72
2023-04-16T18:31:52.387Z,85.01
2023-04-16T18:34:19.347Z,84.73
2023-04-16T18:36:46.349Z,84.87
2023-04-16T18:39:13.133Z,84.78
2023-04-16T18:41:41.050Z,84.58
2023-04-16T18:44:08.072Z,84.78
2023-04-16T18:46:34.897Z,84.90
2023-04-16T18:49:01.708Z,84.71
2023-04-16T18:51:28.631Z,84.58
2023-04-16T18:53:55.470Z,84.41
2023-04-16T18:56:22.253Z,84.76
2023-04-16T18:58:49.747Z,84.54
2023-04-16T19:01:16.821Z,84.85
2023-04-16T19:03:43.838Z,84.48
2023-04-16T19:06:10.660Z,84.51
2023-04-16T19:08:37.402Z,84.66
2023-04-16T19:11:04.116Z,84.82
2023-04-16T19:13:32.387Z,84.30
2023-04-16T19:16:00.139Z,84.57
2023-04-16T19:18:27.018Z,84.31
2023-04-16T19:21:00.844Z,84.64
2023-04-16T19:23:28.133Z,84.66
2023-04-16T19:25:58.018Z,84.55
2023-04-16T19:28:25.400Z,84.36
2023-04-16T19:30:52.840Z,84.56
2023-04-16T19:33:19.644Z,84.41
2023-04-16T19:35:47.063Z,84.52
2023-04-16T19:38:14.500Z,84.52
2023-04-16T19:40:44.527Z,84.55
2023-04-16T19:43:11.208Z,84.70
2023-04-16T19:45:43.909Z,84.26
2023-04-16T19:48:11.429Z,84.54
2023-04-16T19:50:42.212Z,84.33
2023-04-16T19:53:09.094Z,84.30
2023-04-16T19:55:36.636Z,84.33
2023-04-16T19:58:06.712Z,84.55
2023-04-16T20:00:35.022Z,84.43
2023-04-16T20:03:02.245Z,84.40
2023-04-16T20:05:29.644Z,84.31
2023-04-16T20:07:56.667Z,84.35
2023-04-16T20:10:24.043Z,84.39
2023-04-16T20:12:51.090Z,84.43
2023-04-16T20:15:18.213Z,84.32
2023-04-16T20:17:45.128Z,84.29
2023-04-16T20:20:11.979Z,84.15
2023-04-16T20:22:39.261Z,83.95
2023-04-16T20:25:07.354Z,84.18
2023-04-16T20:27:34.237Z,84.28
2023-04-16T20:30:01.484Z,84.61
2023-04-16T20:32:28.321Z,84.07
2023-04-16T20:34:55.838Z,84.01
2023-04-16T20:37:22.728Z,84.21
2023-04-16T20:39:50.442Z,84.58
2023-04-16T20:42:18.190Z,84.51
2023-04-16T20:44:50.481Z,84.45
2023-04-16T20:47:17.406Z,84.33
2023-04-16T20:49:49.506Z,84.02
2023-04-16T20:52:16.984Z,84.05
2023-04-16T20:54:43.762Z,84.17
2023-04-16T20:57:10.466Z,83.96
2023-04-16T20:59:37.249Z,83.97
2023-04-16T21:02:04.029Z,84.05
2023-04-16T21:04:31.171Z,84.03
2023-04-16T21:06:57.957Z,83.85
2023-04-16T21:09:24.890Z,84.00
2023-04-16T21:11:51.901Z,83.90
2023-04-16T21:14:18.703Z,84.05
2023-04-16T21:16:45.631Z,83.82
2023-04-16T21:19:12.497Z,83.93
2023-04-16T21:21:39.823Z,83.76
2023-04-16T21:24:07.129Z,83.73
2023-04-16T21:26:33.908Z,83.76
2023-04-16T21:29:00.675Z,83.65
2023-04-16T21:31:27.591Z,83.81
2023-04-16T21:33:54.471Z,83.97
2023-04-16T21:36:21.192Z,83.66
2023-04-16T21:38:47.900Z,83.82
2023-04-16T21:41:14.559Z,83.78
2023-04-16T21:43:41.271Z,83.98
2023-04-16T21:46:08.090Z,83.82
2023-04-16T21:48:34.820Z,83.60
2023-04-16T21:51:06.971Z,83.83
2023-04-16T21:53:34.396Z,83.79
2023-04-16T21:56:01.228Z,83.79
2023-04-16T21:58:28.020Z,83.63
2023-04-16T22:00:54.943Z,83.66
2023-04-16T22:03:27.834Z,83.54
2023-04-16T22:06:01.125Z,83.65
2023-04-16T22:08:29.088Z,83.68
2023-04-16T22:11:00.084Z,83.43
2023-04-16T22:13:27.264Z,83.52
2023-04-16T22:15:55.106Z,83.69
2023-04-16T22:18:25.696Z,83.60
2023-04-16T22:20:56.229Z,83.52
2023-04-16T22:23:26.214Z,83.71
2023-04-16T22:25:54.918Z,83.59
2023-04-16T22:28:21.778Z,83.42
2023-04-16T22:30:48.988Z,83.59
2023-04-16T22:33:15.923Z,83.52
2023-04-16T22:35:42.726Z,83.69
2023-04-16T22:38:10.435Z,83.54
2023-04-16T22:40:37.312Z,83.68
2023-04-16T22:43:04.874Z,83.70
2023-04-16T22:45:31.711Z,83.46
2023-04-16T22:47:58.554Z,83.59
2023-04-16T22:50:25.302Z,83.67
2023-04-16T22:52:51.999Z,83.52
2023-04-16T22:55:18.818Z,83.36
2023-04-16T22:57:45.490Z,83.58
2023-04-16T23:00:17.908Z,83.63
2023-04-16T23:02:45.136Z,83.54
2023-04-16T23:05:12.221Z,83.65
2023-04-16T23:07:39.139Z,83.66
2023-04-16T23:10:06.421Z,83.34
2023-04-16T23:12:33.158Z,83.51
2023-04-16T23:15:00.880Z,83.42
2023-04-16T23:17:28.197Z,83.70
2023-04-16T23:19:55.017Z,83.39
2023-04-16T23:22:21.765Z,83.27
2023-04-16T23:24:48.484Z,83.57
2023-04-16T23:27:15.249Z,83.37
2023-04-16T23:29:42.094Z,83.49
2023-04-16T23:32:08.774Z,83.53
2023-04-16T23:34:35.645Z,83.34
2023-04-16T23:37:02.402Z,83.34
2023-04-16T23:39:29.634Z,83.47
2023-04-16T23:41:57.711Z,83.58
2023-04-16T23:44:24.538Z,83.47
2023-04-16T23:46:51.583Z,83.40
2023-04-16T23:49:18.367Z,83.38
2023-04-16T23:51:45.037Z,83.30
2023-04-16T23:54:11.766Z,83.45
2023-04-16T23:56:38.629Z,83.30
2023-04-16T23:59:05.437Z,83.37
